Vernon, Texas
Current Conditions -  °F | °C
As of 1:15 PM on Monday 22 Dec 2014 (Local Time) from KF05 Reporting Station
Clear Clear  
Wind Chill: 16°   Ceiling: Unl
Heat Index: 16°   Visibility: 10mi
Dew Point: -2°   Wind: 16mph
Humidity: 31%   Direction: 330°NNW
Pressure: 29.67"   Gusts: NA
Location:  34.15°N, 99.28°W
Report Text: KF05 221915Z AUTO 33014KT 10SM CLR 16/M02 A2967 RMK AO1 T01581016
Loading
Personal Weather Stations






























Interactive Weather Map New forecast layout! Learn more

10-Day Weather Forecast

Advertisements
Track Severe Weather on mobile